sensor_id;sensor_type;location;lat;lon;timestamp;pressure;altitude;pressure_sealevel;temperature;humidity
32237;BME280;18726;44.732;10.550;2023-11-22T00:02:03;100607.59;;;14.68;100.00
32237;BME280;18726;44.732;10.550;2023-11-22T00:05:07;100603.28;;;14.67;100.00
32237;BME280;18726;44.732;10.550;2023-11-22T00:08:13;100604.03;;;14.64;100.00
32237;BME280;18726;44.732;10.550;2023-11-22T00:11:17;100609.00;;;14.55;100.00
32237;BME280;18726;44.732;10.550;2023-11-22T00:14:21;100606.81;;;14.34;100.00
32237;BME280;18726;44.732;10.550;2023-11-22T00:17:25;100604.19;;;14.45;100.00
32237;BME280;18726;44.732;10.550;2023-11-22T00:20:29;100612.16;;;14.57;100.00
32237;BME280;18726;44.732;10.550;2023-11-22T00:23:34;100610.66;;;14.63;100.00
32237;BME280;18726;44.732;10.550;2023-11-22T00:26:37;100612.47;;;14.52;100.00
32237;BME280;18726;44.732;10.550;2023-11-22T00:29:41;100606.94;;;14.11;100.00
32237;BME280;18726;44.732;10.550;2023-11-22T00:32:45;100612.63;;;14.33;100.00
32237;BME280;18726;44.732;10.550;2023-11-22T00:35:49;100612.00;;;14.43;100.00
32237;BME280;18726;44.732;10.550;2023-11-22T00:38:53;100612.72;;;14.40;100.00
32237;BME280;18726;44.732;10.550;2023-11-22T00:41:57;100615.03;;;14.38;100.00
32237;BME280;18726;44.732;10.550;2023-11-22T00:45:01;100619.78;;;14.11;100.00
32237;BME280;18726;44.732;10.550;2023-11-22T00:48:05;100621.66;;;14.03;100.00
32237;BME280;18726;44.732;10.550;2023-11-22T00:51:09;100614.75;;;14.13;100.00
32237;BME280;18726;44.732;10.550;2023-11-22T00:54:14;100627.56;;;13.79;100.00
32237;BME280;18726;44.732;10.550;2023-11-22T00:57:19;100627.47;;;13.72;100.00
32237;BME280;18726;44.732;10.550;2023-11-22T01:00:23;100622.25;;;13.63;100.00
32237;BME280;18726;44.732;10.550;2023-11-22T01:03:28;100630.97;;;13.72;100.00
32237;BME280;18726;44.732;10.550;2023-11-22T01:06:31;100631.25;;;13.64;100.00
32237;BME280;18726;44.732;10.550;2023-11-22T01:09:35;100629.78;;;13.70;100.00
32237;BME280;18726;44.732;10.550;2023-11-22T01:12:39;100641.91;;;14.02;100.00
32237;BME280;18726;44.732;10.550;2023-11-22T01:15:42;100633.41;;;14.07;100.00
32237;BME280;18726;44.732;10.550;2023-11-22T01:18:47;100631.63;;;13.92;100.00
32237;BME280;18726;44.732;10.550;2023-11-22T01:21:52;100628.47;;;13.90;100.00
32237;BME280;18726;44.732;10.550;2023-11-22T01:24:55;100627.16;;;13.77;100.00
32237;BME280;18726;44.732;10.550;2023-11-22T01:27:59;100623.41;;;13.62;100.00
32237;BME280;18726;44.732;10.550;2023-11-22T01:31:03;100631.41;;;13.74;100.00
32237;BME280;18726;44.732;10.550;2023-11-22T01:34:08;100628.00;;;13.81;100.00
32237;BME280;18726;44.732;10.550;2023-11-22T01:37:11;100623.53;;;13.99;100.00
32237;BME280;18726;44.732;10.550;2023-11-22T01:40:16;100635.47;;;13.88;100.00
32237;BME280;18726;44.732;10.550;2023-11-22T01:43:20;100625.31;;;14.14;100.00
32237;BME280;18726;44.732;10.550;2023-11-22T01:46:30;100623.06;;;14.24;100.00
32237;BME280;18726;44.732;10.550;2023-11-22T01:49:34;100630.03;;;14.51;100.00
32237;BME280;18726;44.732;10.550;2023-11-22T01:52:39;100622.59;;;14.48;100.00
32237;BME280;18726;44.732;10.550;2023-11-22T01:55:43;100623.81;;;14.54;100.00
32237;BME280;18726;44.732;10.550;2023-11-22T01:58:49;100627.69;;;14.49;100.00
32237;BME280;18726;44.732;10.550;2023-11-22T02:01:53;100628.94;;;14.26;100.00
32237;BME280;18726;44.732;10.550;2023-11-22T02:04:58;100632.72;;;14.17;100.00
32237;BME280;18726;44.732;10.550;2023-11-22T02:08:02;100631.56;;;14.18;100.00
32237;BME280;18726;44.732;10.550;2023-11-22T02:11:08;100638.16;;;14.44;100.00
32237;BME280;18726;44.732;10.550;2023-11-22T02:14:12;100638.75;;;14.60;100.00
32237;BME280;18726;44.732;10.550;2023-11-22T02:17:16;100632.84;;;14.58;100.00
32237;BME280;18726;44.732;10.550;2023-11-22T02:20:23;100625.88;;;14.31;100.00
32237;BME280;18726;44.732;10.550;2023-11-22T02:23:28;100623.72;;;14.43;100.00
32237;BME280;18726;44.732;10.550;2023-11-22T02:26:32;100625.31;;;14.48;100.00
32237;BME280;18726;44.732;10.550;2023-11-22T02:29:37;100625.97;;;14.38;100.00
32237;BME280;18726;44.732;10.550;2023-11-22T02:32:41;100627.72;;;14.53;100.00
32237;BME280;18726;44.732;10.550;2023-11-22T02:35:47;100622.34;;;14.60;100.00
32237;BME280;18726;44.732;10.550;2023-11-22T02:38:51;100623.25;;;14.71;100.00
32237;BME280;18726;44.732;10.550;2023-11-22T02:41:55;100622.75;;;14.62;100.00
32237;BME280;18726;44.732;10.550;2023-11-22T02:44:59;100622.66;;;14.55;100.00
32237;BME280;18726;44.732;10.550;2023-11-22T02:48:03;100625.88;;;14.31;100.00
32237;BME280;18726;44.732;10.550;2023-11-22T02:51:10;100629.25;;;14.50;100.00
32237;BME280;18726;44.732;10.550;2023-11-22T02:54:15;100630.78;;;14.48;100.00
32237;BME280;18726;44.732;10.550;2023-11-22T02:57:19;100627.81;;;14.60;100.00
32237;BME280;18726;44.732;10.550;2023-11-22T03:00:23;100627.09;;;14.67;100.00
32237;BME280;18726;44.732;10.550;2023-11-22T03:03:28;100622.53;;;14.81;100.00
32237;BME280;18726;44.732;10.550;2023-11-22T03:06:32;100628.41;;;14.83;100.00
32237;BME280;18726;44.732;10.550;2023-11-22T03:09:36;100627.22;;;14.81;100.00
32237;BME280;18726;44.732;10.550;2023-11-22T03:12:40;100629.50;;;14.75;100.00
32237;BME280;18726;44.732;10.550;2023-11-22T03:15:48;100627.47;;;14.32;100.00
32237;BME280;18726;44.732;10.550;2023-11-22T03:18:52;100630.72;;;14.41;100.00
32237;BME280;18726;44.732;10.550;2023-11-22T03:21:56;100624.22;;;14.23;100.00
32237;BME280;18726;44.732;10.550;2023-11-22T03:25:00;100629.78;;;14.30;100.00
32237;BME280;18726;44.732;10.550;2023-11-22T03:28:03;100635.47;;;14.17;100.00
32237;BME280;18726;44.732;10.550;2023-11-22T03:31:07;100641.50;;;14.30;100.00
32237;BME280;18726;44.732;10.550;2023-11-22T03:34:13;100640.06;;;14.40;100.00
32237;BME280;18726;44.732;10.550;2023-11-22T03:37:17;100636.28;;;14.51;100.00
32237;BME280;18726;44.732;10.550;2023-11-22T03:40:23;100636.84;;;14.64;100.00
32237;BME280;18726;44.732;10.550;2023-11-22T03:43:27;100641.97;;;14.69;100.00
32237;BME280;18726;44.732;10.550;2023-11-22T03:46:33;100640.03;;;14.73;100.00
32237;BME280;18726;44.732;10.550;2023-11-22T03:49:38;100639.34;;;14.46;100.00
32237;BME280;18726;44.732;10.550;2023-11-22T03:52:41;100640.22;;;14.54;100.00
32237;BME280;18726;44.732;10.550;2023-11-22T03:55:46;100642.09;;;14.46;100.00
32237;BME280;18726;44.732;10.550;2023-11-22T03:58:50;100652.38;;;14.27;100.00
32237;BME280;18726;44.732;10.550;2023-11-22T04:01:54;100646.94;;;14.30;100.00
32237;BME280;18726;44.732;10.550;2023-11-22T04:04:58;100658.47;;;14.16;100.00
32237;BME280;18726;44.732;10.550;2023-11-22T04:08:05;100658.25;;;14.29;100.00
32237;BME280;18726;44.732;10.550;2023-11-22T04:11:09;100652.50;;;14.37;100.00
32237;BME280;18726;44.732;10.550;2023-11-22T04:14:16;100650.28;;;14.43;100.00
32237;BME280;18726;44.732;10.550;2023-11-22T04:17:22;100649.84;;;14.11;100.00
32237;BME280;18726;44.732;10.550;2023-11-22T04:20:25;100648.63;;;14.08;100.00
32237;BME280;18726;44.732;10.550;2023-11-22T04:23:33;100647.66;;;13.94;100.00
32237;BME280;18726;44.732;10.550;2023-11-22T04:26:37;100656.88;;;13.56;100.00
32237;BME280;18726;44.732;10.550;2023-11-22T04:29:41;100654.06;;;13.26;100.00
32237;BME280;18726;44.732;10.550;2023-11-22T04:32:45;100654.28;;;13.17;100.00
32237;BME280;18726;44.732;10.550;2023-11-22T04:35:49;100659.06;;;13.46;100.00
32237;BME280;18726;44.732;10.550;2023-11-22T04:38:53;100668.19;;;13.58;100.00
32237;BME280;18726;44.732;10.550;2023-11-22T04:41:57;100665.25;;;13.43;100.00
32237;BME280;18726;44.732;10.550;2023-11-22T04:45:01;100667.00;;;13.32;100.00
32237;BME280;18726;44.732;10.550;2023-11-22T04:48:05;100669.22;;;13.04;100.00
32237;BME280;18726;44.732;10.550;2023-11-22T04:51:12;100678.28;;;13.54;100.00
32237;BME280;18726;44.732;10.550;2023-11-22T04:54:16;100678.72;;;13.59;100.00
32237;BME280;18726;44.732;10.550;2023-11-22T04:57:20;100681.28;;;13.71;100.00
32237;BME280;18726;44.732;10.550;2023-11-22T05:00:23;100687.53;;;13.72;100.00
32237;BME280;18726;44.732;10.550;2023-11-22T05:03:27;100700.00;;;13.73;100.00
32237;BME280;18726;44.732;10.550;2023-11-22T05:06:31;100698.22;;;13.58;100.00
32237;BME280;18726;44.732;10.550;2023-11-22T05:09:35;100702.59;;;13.39;100.00
32237;BME280;18726;44.732;10.550;2023-11-22T05:12:38;100703.94;;;13.26;100.00
32237;BME280;18726;44.732;10.550;2023-11-22T05:15:42;100709.88;;;13.55;100.00
32237;BME280;18726;44.732;10.550;2023-11-22T05:18:46;100712.91;;;13.49;100.00
32237;BME280;18726;44.732;10.550;2023-11-22T05:21:49;100710.34;;;13.37;100.00
32237;BME280;18726;44.732;10.550;2023-11-22T05:24:53;100716.13;;;13.13;100.00
32237;BME280;18726;44.732;10.550;2023-11-22T05:27:56;100713.56;;;13.01;100.00
32237;BME280;18726;44.732;10.550;2023-11-22T05:31:00;100715.56;;;13.04;100.00
32237;BME280;18726;44.732;10.550;2023-11-22T05:34:04;100714.97;;;12.91;100.00
32237;BME280;18726;44.732;10.550;2023-11-22T05:37:08;100717.97;;;12.86;100.00
32237;BME280;18726;44.732;10.550;2023-11-22T05:40:13;100728.25;;;12.93;100.00
32237;BME280;18726;44.732;10.550;2023-11-22T05:43:19;100735.75;;;13.18;100.00
32237;BME280;18726;44.732;10.550;2023-11-22T05:46:28;100727.41;;;13.54;100.00
32237;BME280;18726;44.732;10.550;2023-11-22T05:49:33;100736.97;;;13.93;100.00
32237;BME280;18726;44.732;10.550;2023-11-22T05:52:36;100733.03;;;14.17;100.00
32237;BME280;18726;44.732;10.550;2023-11-22T05:55:40;100739.84;;;14.30;100.00
32237;BME280;18726;44.732;10.550;2023-11-22T05:58:46;100734.19;;;14.16;100.00
32237;BME280;18726;44.732;10.550;2023-11-22T06:01:50;100736.53;;;14.44;100.00
32237;BME280;18726;44.732;10.550;2023-11-22T06:04:54;100743.25;;;14.50;100.00
32237;BME280;18726;44.732;10.550;2023-11-22T06:07:58;100734.44;;;14.34;100.00
32237;BME280;18726;44.732;10.550;2023-11-22T06:11:01;100745.53;;;14.44;100.00
32237;BME280;18726;44.732;10.550;2023-11-22T06:14:05;100753.88;;;14.55;100.00
32237;BME280;18726;44.732;10.550;2023-11-22T06:17:08;100762.19;;;14.62;100.00
32237;BME280;18726;44.732;10.550;2023-11-22T06:20:12;100766.81;;;14.58;100.00
32237;BME280;18726;44.732;10.550;2023-11-22T06:23:16;100768.59;;;14.77;100.00
32237;BME280;18726;44.732;10.550;2023-11-22T06:26:21;100775.06;;;14.95;100.00
32237;BME280;18726;44.732;10.550;2023-11-22T06:29:25;100782.31;;;15.14;100.00
32237;BME280;18726;44.732;10.550;2023-11-22T06:32:29;100785.50;;;15.19;100.00
32237;BME280;18726;44.732;10.550;2023-11-22T06:35:33;100789.22;;;15.04;100.00
32237;BME280;18726;44.732;10.550;2023-11-22T06:38:37;100789.81;;;14.87;100.00
32237;BME280;18726;44.732;10.550;2023-11-22T06:41:41;100789.16;;;14.37;100.00
32237;BME280;18726;44.732;10.550;2023-11-22T06:44:45;100791.50;;;14.65;100.00
32237;BME280;18726;44.732;10.550;2023-11-22T06:47:52;100800.13;;;14.97;100.00
32237;BME280;18726;44.732;10.550;2023-11-22T06:50:56;100798.41;;;14.85;100.00
32237;BME280;18726;44.732;10.550;2023-11-22T06:54:00;100801.78;;;14.75;100.00
32237;BME280;18726;44.732;10.550;2023-11-22T06:57:03;100826.13;;;14.84;100.00
32237;BME280;18726;44.732;10.550;2023-11-22T07:00:08;100829.06;;;15.02;99.13
32237;BME280;18726;44.732;10.550;2023-11-22T07:03:13;100820.19;;;14.78;95.56
32237;BME280;18726;44.732;10.550;2023-11-22T07:06:19;100840.41;;;15.04;100.00
32237;BME280;18726;44.732;10.550;2023-11-22T07:09:24;100842.91;;;15.49;100.00
32237;BME280;18726;44.732;10.550;2023-11-22T07:12:28;100843.16;;;15.71;97.62
32237;BME280;18726;44.732;10.550;2023-11-22T07:15:35;100848.19;;;16.09;100.00
32237;BME280;18726;44.732;10.550;2023-11-22T07:18:40;100851.25;;;17.39;92.57
32237;BME280;18726;44.732;10.550;2023-11-22T07:21:43;100867.81;;;18.49;84.62
32237;BME280;18726;44.732;10.550;2023-11-22T07:24:48;100887.59;;;20.11;65.44
32237;BME280;18726;44.732;10.550;2023-11-22T07:27:54;100888.13;;;21.76;57.48
32237;BME280;18726;44.732;10.550;2023-11-22T07:30:58;100886.00;;;22.57;55.01
32237;BME280;18726;44.732;10.550;2023-11-22T07:34:02;100899.59;;;22.52;58.19
32237;BME280;18726;44.732;10.550;2023-11-22T07:37:07;100899.56;;;22.95;57.27
32237;BME280;18726;44.732;10.550;2023-11-22T07:40:12;100906.28;;;22.74;54.59
32237;BME280;18726;44.732;10.550;2023-11-22T07:43:17;100911.63;;;21.34;57.24
32237;BME280;18726;44.732;10.550;2023-11-22T07:46:22;100918.31;;;20.10;64.13
32237;BME280;18726;44.732;10.550;2023-11-22T07:49:26;100918.88;;;22.32;60.07
32237;BME280;18726;44.732;10.550;2023-11-22T07:52:30;100939.03;;;24.47;50.92
32237;BME280;18726;44.732;10.550;2023-11-22T07:55:34;100943.28;;;24.35;48.89
32237;BME280;18726;44.732;10.550;2023-11-22T07:58:41;100940.56;;;24.15;49.00
32237;BME280;18726;44.732;10.550;2023-11-22T08:01:45;100942.47;;;24.02;49.74
32237;BME280;18726;44.732;10.550;2023-11-22T08:04:51;100950.38;;;23.68;51.46
32237;BME280;18726;44.732;10.550;2023-11-22T08:07:56;100941.97;;;24.23;48.97
32237;BME280;18726;44.732;10.550;2023-11-22T08:11:00;100948.19;;;24.76;47.89
32237;BME280;18726;44.732;10.550;2023-11-22T08:14:05;100950.72;;;25.70;47.23
32237;BME280;18726;44.732;10.550;2023-11-22T08:17:09;100957.63;;;27.54;42.70
32237;BME280;18726;44.732;10.550;2023-11-22T08:20:13;100962.72;;;28.95;40.01
32237;BME280;18726;44.732;10.550;2023-11-22T08:23:20;100963.91;;;29.58;37.97
32237;BME280;18726;44.732;10.550;2023-11-22T08:26:24;100966.22;;;31.06;36.72
32237;BME280;18726;44.732;10.550;2023-11-22T08:29:29;100970.13;;;32.93;33.59
32237;BME280;18726;44.732;10.550;2023-11-22T08:32:32;100974.47;;;33.97;31.68
32237;BME280;18726;44.732;10.550;2023-11-22T08:35:36;100973.44;;;35.02;30.26
32237;BME280;18726;44.732;10.550;2023-11-22T08:38:40;100971.22;;;36.01;29.61
32237;BME280;18726;44.732;10.550;2023-11-22T08:41:47;100980.66;;;36.37;28.47
32237;BME280;18726;44.732;10.550;2023-11-22T08:44:53;100977.97;;;37.14;27.33
32237;BME280;18726;44.732;10.550;2023-11-22T08:47:57;100977.28;;;38.03;27.02
32237;BME280;18726;44.732;10.550;2023-11-22T08:51:01;100976.81;;;37.99;27.77
32237;BME280;18726;44.732;10.550;2023-11-22T08:54:07;100979.84;;;38.50;26.57
32237;BME280;18726;44.732;10.550;2023-11-22T08:57:11;100986.44;;;38.82;25.91
32237;BME280;18726;44.732;10.550;2023-11-22T09:00:15;100994.03;;;39.63;25.96
32237;BME280;18726;44.732;10.550;2023-11-22T09:03:19;101006.19;;;40.08;24.56
32237;BME280;18726;44.732;10.550;2023-11-22T09:06:23;101009.69;;;40.28;24.81
32237;BME280;18726;44.732;10.550;2023-11-22T09:09:27;101001.88;;;40.94;24.06
32237;BME280;18726;44.732;10.550;2023-11-22T09:12:35;101006.56;;;41.05;23.54
32237;BME280;18726;44.732;10.550;2023-11-22T09:15:39;101013.44;;;40.75;24.01
32237;BME280;18726;44.732;10.550;2023-11-22T09:18:45;101016.25;;;40.89;23.17
32237;BME280;18726;44.732;10.550;2023-11-22T09:21:49;101014.13;;;40.42;25.76
32237;BME280;18726;44.732;10.550;2023-11-22T09:24:53;101017.81;;;40.63;23.87
32237;BME280;18726;44.732;10.550;2023-11-22T09:27:57;101017.06;;;41.23;23.57
32237;BME280;18726;44.732;10.550;2023-11-22T09:31:04;101010.03;;;42.07;22.49
32237;BME280;18726;44.732;10.550;2023-11-22T09:34:10;101015.56;;;42.77;22.31
32237;BME280;18726;44.732;10.550;2023-11-22T09:37:14;101015.34;;;42.75;22.65
32237;BME280;18726;44.732;10.550;2023-11-22T09:40:18;101024.50;;;42.38;21.89
32237;BME280;18726;44.732;10.550;2023-11-22T09:43:22;101025.69;;;42.14;22.42
32237;BME280;18726;44.732;10.550;2023-11-22T09:46:28;101016.34;;;40.96;23.57
32237;BME280;18726;44.732;10.550;2023-11-22T09:49:34;101029.41;;;40.92;23.21
32237;BME280;18726;44.732;10.550;2023-11-22T09:52:41;101032.72;;;40.43;23.98
32237;BME280;18726;44.732;10.550;2023-11-22T09:55:45;101015.59;;;40.96;22.04
32237;BME280;18726;44.732;10.550;2023-11-22T09:58:52;101021.78;;;41.41;23.38
32237;BME280;18726;44.732;10.550;2023-11-22T10:01:59;101021.28;;;41.30;23.15
32237;BME280;18726;44.732;10.550;2023-11-22T10:05:03;101023.75;;;42.73;22.24
32237;BME280;18726;44.732;10.550;2023-11-22T10:08:07;101022.94;;;43.01;21.93
32237;BME280;18726;44.732;10.550;2023-11-22T10:11:16;101021.75;;;42.53;21.89
32237;BME280;18726;44.732;10.550;2023-11-22T10:14:26;101025.22;;;42.59;22.72
32237;BME280;18726;44.732;10.550;2023-11-22T10:17:30;101031.69;;;42.96;21.66
32237;BME280;18726;44.732;10.550;2023-11-22T10:20:38;101036.41;;;42.86;21.38
32237;BME280;18726;44.732;10.550;2023-11-22T10:23:42;101031.03;;;42.46;19.94
32237;BME280;18726;44.732;10.550;2023-11-22T10:26:51;101026.28;;;42.85;22.34
32237;BME280;18726;44.732;10.550;2023-11-22T10:29:55;101035.78;;;42.79;21.57
32237;BME280;18726;44.732;10.550;2023-11-22T10:32:59;101032.06;;;42.28;21.92
32237;BME280;18726;44.732;10.550;2023-11-22T10:36:03;101023.75;;;41.46;22.88
32237;BME280;18726;44.732;10.550;2023-11-22T10:39:08;101027.75;;;39.40;24.52
32237;BME280;18726;44.732;10.550;2023-11-22T10:42:13;101012.38;;;37.76;26.27
32237;BME280;18726;44.732;10.550;2023-11-22T10:45:17;101014.13;;;36.16;26.74
32237;BME280;18726;44.732;10.550;2023-11-22T10:48:21;101022.22;;;35.03;28.36
32237;BME280;18726;44.732;10.550;2023-11-22T10:51:30;101017.34;;;34.12;29.75
32237;BME280;18726;44.732;10.550;2023-11-22T10:54:35;101023.53;;;33.53;30.44
32237;BME280;18726;44.732;10.550;2023-11-22T10:57:45;101021.38;;;33.22;30.89
32237;BME280;18726;44.732;10.550;2023-11-22T11:00:51;101021.22;;;33.06;30.74
32237;BME280;18726;44.732;10.550;2023-11-22T11:04:07;101021.28;;;31.86;29.94
32237;BME280;18726;44.732;10.550;2023-11-22T11:07:15;101024.75;;;29.57;34.16
32237;BME280;18726;44.732;10.550;2023-11-22T11:10:21;101022.78;;;30.33;34.38
32237;BME280;18726;44.732;10.550;2023-11-22T11:13:27;101027.44;;;30.69;32.41
32237;BME280;18726;44.732;10.550;2023-11-22T11:16:34;101035.47;;;30.19;33.56
32237;BME280;18726;44.732;10.550;2023-11-22T11:19:40;101035.16;;;30.17;36.11
32237;BME280;18726;44.732;10.550;2023-11-22T11:22:47;101045.06;;;29.85;35.25
32237;BME280;18726;44.732;10.550;2023-11-22T11:25:59;101036.88;;;29.27;36.25
32237;BME280;18726;44.732;10.550;2023-11-22T11:29:30;101030.50;;;29.35;36.62
32237;BME280;18726;44.732;10.550;2023-11-22T11:32:34;101038.56;;;29.24;37.05
32237;BME280;18726;44.732;10.550;2023-11-22T11:35:44;101040.75;;;29.02;36.05
32237;BME280;18726;44.732;10.550;2023-11-22T11:38:52;101039.19;;;28.82;36.61
32237;BME280;18726;44.732;10.550;2023-11-22T11:42:12;101045.63;;;28.52;37.40
32237;BME280;18726;44.732;10.550;2023-11-22T11:45:17;101051.91;;;28.25;38.66
32237;BME280;18726;44.732;10.550;2023-11-22T11:48:21;101050.78;;;28.22;38.68
32237;BME280;18726;44.732;10.550;2023-11-22T11:51:27;101060.34;;;27.25;39.08
32237;BME280;18726;44.732;10.550;2023-11-22T11:54:32;101047.25;;;26.87;39.42
32237;BME280;18726;44.732;10.550;2023-11-22T11:57:36;101048.91;;;26.38;39.39
32237;BME280;18726;44.732;10.550;2023-11-22T12:00:40;101037.28;;;24.69;38.79
32237;BME280;18726;44.732;10.550;2023-11-22T12:03:44;101036.31;;;22.58;42.53
32237;BME280;18726;44.732;10.550;2023-11-22T12:06:49;101029.59;;;22.59;52.62
32237;BME280;18726;44.732;10.550;2023-11-22T12:09:54;101037.13;;;23.48;52.18
32237;BME280;18726;44.732;10.550;2023-11-22T12:13:00;101038.66;;;24.61;50.22
32237;BME280;18726;44.732;10.550;2023-11-22T12:16:05;101043.56;;;24.21;44.09
32237;BME280;18726;44.732;10.550;2023-11-22T12:19:24;101049.00;;;24.44;45.39
32237;BME280;18726;44.732;10.550;2023-11-22T12:22:28;101047.31;;;24.31;43.18
32237;BME280;18726;44.732;10.550;2023-11-22T12:25:33;101047.16;;;22.49;46.08
32237;BME280;18726;44.732;10.550;2023-11-22T12:28:36;101048.41;;;21.87;45.32
32237;BME280;18726;44.732;10.550;2023-11-22T12:31:48;101054.44;;;21.41;47.42
32237;BME280;18726;44.732;10.550;2023-11-22T12:34:54;101051.75;;;20.93;50.91
32237;BME280;18726;44.732;10.550;2023-11-22T12:38:02;101057.22;;;21.00;49.11
32237;BME280;18726;44.732;10.550;2023-11-22T12:41:14;101069.31;;;21.88;51.77
32237;BME280;18726;44.732;10.550;2023-11-22T12:44:19;101066.41;;;22.02;49.36
32237;BME280;18726;44.732;10.550;2023-11-22T12:47:32;101072.19;;;21.02;50.73
32237;BME280;18726;44.732;10.550;2023-11-22T12:50:40;101075.81;;;20.33;50.14
32237;BME280;18726;44.732;10.550;2023-11-22T12:53:45;101073.59;;;20.03;52.23
32237;BME280;18726;44.732;10.550;2023-11-22T12:56:53;101079.53;;;20.71;50.69
32237;BME280;18726;44.732;10.550;2023-11-22T13:00:01;101074.59;;;20.97;54.85
32237;BME280;18726;44.732;10.550;2023-11-22T13:03:08;101077.53;;;20.75;51.10
32237;BME280;18726;44.732;10.550;2023-11-22T13:06:15;101074.88;;;20.61;54.27
32237;BME280;18726;44.732;10.550;2023-11-22T13:09:20;101075.38;;;20.45;55.43
32237;BME280;18726;44.732;10.550;2023-11-22T13:12:24;101071.19;;;20.12;53.57
32237;BME280;18726;44.732;10.550;2023-11-22T13:15:28;101078.72;;;20.74;50.85
32237;BME280;18726;44.732;10.550;2023-11-22T13:18:31;101071.16;;;20.19;54.16
32237;BME280;18726;44.732;10.550;2023-11-22T13:21:35;101071.13;;;20.23;53.57
32237;BME280;18726;44.732;10.550;2023-11-22T13:24:39;101074.84;;;19.88;54.78
32237;BME280;18726;44.732;10.550;2023-11-22T13:27:42;101071.34;;;19.77;54.46
32237;BME280;18726;44.732;10.550;2023-11-22T13:30:46;101079.19;;;19.89;56.73
32237;BME280;18726;44.732;10.550;2023-11-22T13:33:52;101079.69;;;19.63;58.60
32237;BME280;18726;44.732;10.550;2023-11-22T13:36:57;101080.22;;;20.20;55.05
32237;BME280;18726;44.732;10.550;2023-11-22T13:40:00;101076.91;;;19.63;56.06
32237;BME280;18726;44.732;10.550;2023-11-22T13:43:06;101084.03;;;19.14;59.03
32237;BME280;18726;44.732;10.550;2023-11-22T13:46:10;101084.00;;;19.35;57.57
32237;BME280;18726;44.732;10.550;2023-11-22T13:49:15;101075.34;;;19.58;58.19
32237;BME280;18726;44.732;10.550;2023-11-22T13:52:19;101077.34;;;19.50;60.32
32237;BME280;18726;44.732;10.550;2023-11-22T13:55:22;101083.91;;;19.88;62.27
32237;BME280;18726;44.732;10.550;2023-11-22T13:58:26;101085.88;;;19.92;59.19
32237;BME280;18726;44.732;10.550;2023-11-22T14:01:30;101093.59;;;20.21;59.06
32237;BME280;18726;44.732;10.550;2023-11-22T14:04:36;101087.59;;;20.48;62.38
32237;BME280;18726;44.732;10.550;2023-11-22T14:07:40;101101.47;;;20.93;61.35
32237;BME280;18726;44.732;10.550;2023-11-22T14:10:43;101094.72;;;20.35;58.44
32237;BME280;18726;44.732;10.550;2023-11-22T14:13:48;101097.53;;;20.90;63.26
32237;BME280;18726;44.732;10.550;2023-11-22T14:16:52;101092.53;;;21.19;63.09
32237;BME280;18726;44.732;10.550;2023-11-22T14:19:56;101084.69;;;21.14;64.54
32237;BME280;18726;44.732;10.550;2023-11-22T14:22:59;101091.09;;;21.07;64.33
32237;BME280;18726;44.732;10.550;2023-11-22T14:26:03;101088.72;;;21.06;65.43
32237;BME280;18726;44.732;10.550;2023-11-22T14:29:07;101086.03;;;20.99;66.73
32237;BME280;18726;44.732;10.550;2023-11-22T14:32:11;101091.16;;;20.97;68.17
32237;BME280;18726;44.732;10.550;2023-11-22T14:35:16;101103.72;;;21.05;66.27
32237;BME280;18726;44.732;10.550;2023-11-22T14:38:21;101099.03;;;21.02;66.83
32237;BME280;18726;44.732;10.550;2023-11-22T14:41:26;101108.50;;;21.01;66.03
32237;BME280;18726;44.732;10.550;2023-11-22T14:44:31;101113.31;;;20.89;67.77
32237;BME280;18726;44.732;10.550;2023-11-22T14:47:35;101112.19;;;20.80;68.41
32237;BME280;18726;44.732;10.550;2023-11-22T14:50:39;101112.97;;;20.80;68.09
32237;BME280;18726;44.732;10.550;2023-11-22T14:53:44;101117.97;;;20.41;65.24
32237;BME280;18726;44.732;10.550;2023-11-22T14:56:49;101117.59;;;20.32;70.30
32237;BME280;18726;44.732;10.550;2023-11-22T14:59:53;101121.44;;;20.52;71.88
32237;BME280;18726;44.732;10.550;2023-11-22T15:02:57;101131.34;;;20.49;71.90
32237;BME280;18726;44.732;10.550;2023-11-22T15:06:01;101139.53;;;20.64;71.48
32237;BME280;18726;44.732;10.550;2023-11-22T15:09:05;101153.72;;;20.66;70.72
32237;BME280;18726;44.732;10.550;2023-11-22T15:12:13;101159.31;;;20.51;71.42
32237;BME280;18726;44.732;10.550;2023-11-22T15:15:17;101166.44;;;20.49;73.05
32237;BME280;18726;44.732;10.550;2023-11-22T15:18:22;101170.38;;;20.48;73.45
32237;BME280;18726;44.732;10.550;2023-11-22T15:21:30;101168.03;;;20.43;73.60
32237;BME280;18726;44.732;10.550;2023-11-22T15:24:34;101176.72;;;20.31;74.20
32237;BME280;18726;44.732;10.550;2023-11-22T15:27:37;101173.28;;;20.05;73.33
32237;BME280;18726;44.732;10.550;2023-11-22T15:30:41;101175.31;;;19.73;72.10
32237;BME280;18726;44.732;10.550;2023-11-22T15:33:45;101184.38;;;19.20;70.28
32237;BME280;18726;44.732;10.550;2023-11-22T15:36:49;101193.81;;;19.19;77.10
32237;BME280;18726;44.732;10.550;2023-11-22T15:39:53;101198.94;;;19.24;79.33
32237;BME280;18726;44.732;10.550;2023-11-22T15:42:56;101198.13;;;19.06;75.71
32237;BME280;18726;44.732;10.550;2023-11-22T15:46:00;101206.41;;;19.16;74.50
32237;BME280;18726;44.732;10.550;2023-11-22T15:49:05;101210.28;;;18.83;75.07